Index Module Time&Date Lat. Long. Hardware Temperature Seawater Temperature Conductivity (µS/cm) Salinity (ppt) No. of Satellites Signal strength
209681 tracker6 23:44 23/04/2021 35.2851219177 139.5670471191 5344142342021.0 0.0 0.0 1.0 6.0 0
209680 tracker6 22:01 23/04/2021 35.2973175049 139.4880065918 1033122342021.0 0.6 249.8 1.0 8.0 0
209679 tracker6 22:01 23/04/2021 35.2973365784 139.487991333 1033122342021.0 0.6 249.8 1.0 8.0 0
209678 tracker6 22:01 23/04/2021 35.297328949 139.4880065918 1033122342021.0 0.3 215.9 1.0 8.0 0
209677 tracker6 22:01 23/04/2021 35.2973442078 139.4880371094 1033122342021.0 0.3 215.9 1.0 8.0 0
209676 tracker6 22:01 23/04/2021 35.2973480225 139.4880523682 1033122342021.0 0.8 254.1 1.0 8.0 0
209675 tracker6 22:00 23/04/2021 35.2973442078 139.488067627 1033122342021.0 0.8 254.1 1.0 8.0 0
209674 tracker6 22:00 23/04/2021 35.2973518372 139.4880828857 1033122342021.0 0.8 254.1 1.0 8.0 0
209673 tracker6 22:00 23/04/2021 35.2973670959 139.4880981445 1033122342021.0 0.8 233.0 1.0 8.0 0
209672 tracker6 22:00 23/04/2021 35.29737854 139.4881134033 1033122342021.0 0.5 183.3 1.0 8.0 0
209671 tracker6 22:00 23/04/2021 35.2973976135 139.4881286621 1033122342021.0 0.5 183.3 1.0 8.0 0
209670 tracker6 22:00 23/04/2021 35.2974014282 139.4881286621 1033122342021.0 0.5 183.3 1.0 8.0 0
209669 tracker6 22:00 23/04/2021 35.2974128723 139.4881286621 1033122342021.0 1.0 328.2 1.0 8.0 0
209668 tracker6 22:00 23/04/2021 35.2973976135 139.4881591797 1033122342021.0 0.8 309.0 1.0 8.0 0
209667 tracker6 22:00 23/04/2021 35.2973937988 139.4881591797 1033122342021.0 1.4 235.7 1.0 8.0 0
209666 tracker6 22:00 23/04/2021 35.2973937988 139.4881896973 1033122342021.0 0.2 164.7 1.0 8.0 0
209665 tracker6 22:00 23/04/2021 35.2973899841 139.4881896973 1033122342021.0 0.1 318.5 1.0 8.0 0
209664 tracker6 22:00 23/04/2021 35.2973899841 139.4881591797 1033122342021.0 0.1 318.5 1.0 8.0 0
209663 tracker6 21:59 23/04/2021 35.2973937988 139.4881744385 1033122342021.0 0.5 170.1 1.0 8.0 0
209662 tracker6 21:59 23/04/2021 35.2973861694 139.4881744385 1033122342021.0 0.5 170.1 1.0 8.0 0
209661 tracker6 21:59 23/04/2021 35.2973937988 139.4881744385 1033122342021.0 0.6 234.8 1.0 8.0 0
209660 tracker6 21:59 23/04/2021 35.2973937988 139.4881896973 1033122342021.0 0.6 234.8 1.0 8.0 0
209659 tracker6 21:59 23/04/2021 35.2974128723 139.4881896973 1033122342021.0 0.7 208.2 1.0 8.0 0
209658 tracker6 21:59 23/04/2021 35.2974205017 139.4882049561 1033122342021.0 0.7 208.2 1.0 8.0 0
209657 tracker6 21:59 23/04/2021 35.2974319458 139.4882354736 1033122342021.0 0.7 174.2 1.0 8.0 0
209656 tracker6 21:59 23/04/2021 35.297416687 139.4882202148 1033122342021.0 0.7 174.2 1.0 8.0 0
209655 tracker6 21:59 23/04/2021 35.2974205017 139.4881896973 1033122342021.0 0.5 342.4 1.0 8.0 0
209654 tracker6 21:59 23/04/2021 35.2974472046 139.4882049561 1033122342021.0 0.5 342.4 1.0 8.0 0
209653 tracker6 21:59 23/04/2021 35.2974624634 139.4882202148 1033122342021.0 0.2 224.9 1.0 8.0 0
209652 tracker6 21:59 23/04/2021 35.2974624634 139.4882507324 1033122342021.0 0.2 224.9 1.0 8.0 0
209651 tracker6 21:58 23/04/2021 35.2974739075 139.48828125 1033122342021.0 0.2 224.9 1.0 8.0 0
209650 tracker6 21:58 23/04/2021 35.297492981 139.4882965088 1033122342021.0 0.7 227.1 1.0 8.0 0
209649 tracker6 21:58 23/04/2021 35.297504425 139.4883270264 1033122342021.0 0.2 0.1 1.0 8.0 0
209648 tracker6 21:58 23/04/2021 35.2975006104 139.4883270264 1033122342021.0 0.8 354.9 1.0 8.0 0
209647 tracker6 21:58 23/04/2021 35.2975120544 139.4883270264 1033122342021.0 0.6 17.3 1.0 8.0 0
209646 tracker6 21:58 23/04/2021 35.2975158691 139.4883270264 1033122342021.0 0.1 207.7 1.0 8.0 0
209645 tracker6 21:58 23/04/2021 35.2975158691 139.4883422852 1033122342021.0 0.1 207.7 1.0 8.0 0
209644 tracker6 21:58 23/04/2021 35.2974853516 139.4883575439 1033122342021.0 0.5 341.3 1.0 8.0 0
209643 tracker6 21:58 23/04/2021 35.2974853516 139.4883728027 1033122342021.0 0.5 341.3 1.0 8.0 0
209642 tracker6 21:58 23/04/2021 35.2974815369 139.4883880615 1033122342021.0 0.5 341.3 1.0 9.0 0
209641 tracker6 21:58 23/04/2021 35.2974777222 139.4883880615 1033122342021.0 0.4 160.5 1.0 9.0 0
209640 tracker6 21:58 23/04/2021 35.2974739075 139.4883728027 1033122342021.0 0.5 163.6 1.0 9.0 0
209639 tracker6 21:57 23/04/2021 35.2974815369 139.4883728027 1033122342021.0 0.5 163.6 1.0 9.0 0
209638 tracker6 21:57 23/04/2021 35.2975006104 139.4883422852 1033122342021.0 0.4 227.8 1.0 9.0 0
209637 tracker6 21:57 23/04/2021 35.297492981 139.4883270264 1033122342021.0 0.4 227.8 1.0 9.0 0
209636 tracker6 21:57 23/04/2021 35.2974967957 139.4883270264 1033122342021.0 0.3 341.8 1.0 9.0 0
209635 tracker6 21:57 23/04/2021 35.2975120544 139.4883728027 1033122342021.0 0.3 341.8 1.0 9.0 0
209634 tracker6 21:57 23/04/2021 35.2975196838 139.4883880615 1033122342021.0 0.6 298.7 1.0 9.0 0
209633 tracker6 21:57 23/04/2021 35.2975006104 139.4884033203 1033122342021.0 0.6 298.7 1.0 9.0 0
209632 tracker6 21:57 23/04/2021 35.2974700928 139.4884033203 1033122342021.0 0.6 154.0 1.0 9.0 0
209631 tracker6 21:57 23/04/2021 35.2974700928 139.4884185791 1033122342021.0 0.6 154.0 1.0 8.0 0
209630 tracker6 21:57 23/04/2021 35.297504425 139.4884338379 1033122342021.0 0.5 197.3 1.0 8.0 0
209629 tracker6 21:57 23/04/2021 35.2975158691 139.4884338379 1033122342021.0 0.5 197.3 1.0 8.0 0
209628 tracker6 21:57 23/04/2021 35.2975196838 139.4884338379 1033122342021.0 0.4 197.3 1.0 8.0 0
209627 tracker6 21:56 23/04/2021 35.2975273132 139.4884490967 1033122342021.0 0.4 197.3 1.0 8.0 0
209626 tracker6 21:56 23/04/2021 35.2975311279 139.4884338379 1033122342021.0 0.4 230.6 1.0 8.0 0
209625 tracker6 21:56 23/04/2021 35.2975387573 139.4884338379 1033122342021.0 0.4 230.6 1.0 8.0 0
209624 tracker6 21:56 23/04/2021 35.2975349426 139.4884338379 1033122342021.0 0.5 227.8 1.0 8.0 0
209623 tracker6 21:56 23/04/2021 35.2975349426 139.4884643555 1033122342021.0 0.5 227.8 1.0 8.0 0
209622 tracker6 21:56 23/04/2021 35.2975502014 139.488494873 1033122342021.0 0.4 228.5 1.0 9.0 0
209621 tracker6 21:56 23/04/2021 35.2975540161 139.4885101318 1033122342021.0 0.4 228.5 1.0 9.0 0
209620 tracker6 21:56 23/04/2021 35.2975502014 139.4885101318 1033122342021.0 0.8 244.2 1.0 9.0 0
209619 tracker6 21:56 23/04/2021 35.2975616455 139.4885253906 1033122342021.0 0.8 244.2 1.0 9.0 0
209618 tracker6 21:56 23/04/2021 35.2975883484 139.4885559082 1033122342021.0 1.6 242.5 1.0 9.0 0
209617 tracker6 21:56 23/04/2021 35.297580719 139.4885559082 1033122342021.0 1.6 242.5 1.0 9.0 0
209616 tracker6 21:56 23/04/2021 35.2975921631 139.488571167 1033122342021.0 0.4 197.3 1.0 9.0 0
209615 tracker6 21:55 23/04/2021 35.2975997925 139.4886474609 1033122342021.0 0.4 197.3 1.0 9.0 0
209614 tracker6 21:55 23/04/2021 35.2975921631 139.4886474609 1033122342021.0 0.1 243.9 1.0 9.0 0
209613 tracker6 21:55 23/04/2021 35.2976036072 139.4886169434 1033122342021.0 0.1 243.9 1.0 9.0 0
209612 tracker6 21:55 23/04/2021 35.2975959778 139.4886322021 1033122342021.0 0.1 189.2 1.0 9.0 0
209611 tracker6 21:55 23/04/2021 35.2975845337 139.4886474609 1033122342021.0 0.1 189.2 1.0 9.0 0
209610 tracker6 21:55 23/04/2021 35.2975883484 139.4886474609 1033122342021.0 1.3 235.2 1.0 9.0 0
209609 tracker6 21:55 23/04/2021 35.2975845337 139.4886474609 1033122342021.0 1.3 235.2 1.0 9.0 0
209608 tracker6 21:55 23/04/2021 35.2975997925 139.4886627197 1033122342021.0 0.9 182.3 1.0 8.0 0
209607 tracker6 21:55 23/04/2021 35.2975997925 139.4887084961 1033122342021.0 0.9 182.3 1.0 8.0 0
209606 tracker6 21:55 23/04/2021 35.297618866 139.4887084961 1033122342021.0 0.8 128.2 1.0 8.0 0
209605 tracker6 21:55 23/04/2021 35.2976264954 139.4887084961 1033122342021.0 0.3 139.3 1.0 8.0 0
209604 tracker6 21:54 23/04/2021 35.2976303101 139.4887084961 1033122342021.0 0.4 202.5 1.0 9.0 0
209603 tracker6 21:54 23/04/2021 35.2976493835 139.4887084961 1033122342021.0 0.4 199.5 1.0 9.0 0
209602 tracker6 21:54 23/04/2021 35.2976722717 139.4887084961 1033122342021.0 0.4 199.5 1.0 9.0 0
209601 tracker6 21:54 23/04/2021 35.2976913452 139.4887084961 1033122342021.0 0.7 176.0 1.0 9.0 0
209600 tracker6 21:54 23/04/2021 35.2976913452 139.4887237549 1033122342021.0 0.7 176.0 1.0 9.0 0
209599 tracker6 21:54 23/04/2021 35.2977180481 139.4887237549 1033122342021.0 0.3 41.4 1.0 8.0 0
209598 tracker6 21:54 23/04/2021 35.2977218628 139.4887237549 1033122342021.0 0.3 41.4 1.0 8.0 0
209597 tracker6 21:54 23/04/2021 35.2977104187 139.4887237549 1033122342021.0 0.4 246.9 1.0 8.0 0
209596 tracker6 21:54 23/04/2021 35.2976875305 139.4887084961 1033122342021.0 0.4 246.9 1.0 8.0 0
209595 tracker6 21:54 23/04/2021 35.2976913452 139.4886779785 1033122342021.0 0.6 328.2 1.0 8.0 0
209594 tracker6 21:54 23/04/2021 35.2976799011 139.4887084961 1033122342021.0 0.6 328.2 1.0 8.0 0
209593 tracker6 21:53 23/04/2021 35.2976722717 139.4887237549 1033122342021.0 0.7 193.4 1.0 8.0 0
209592 tracker6 21:53 23/04/2021 35.2976493835 139.4887237549 1033122342021.0 0.7 193.4 1.0 8.0 0
209591 tracker6 21:53 23/04/2021 35.2976608276 139.4887237549 1033122342021.0 0.5 277.5 1.0 8.0 0
209590 tracker6 21:53 23/04/2021 35.2976951599 139.4887390137 1033122342021.0 0.5 277.5 1.0 8.0 0
209589 tracker6 21:53 23/04/2021 35.297706604 139.4887695312 1033122342021.0 0.9 199.2 1.0 8.0 0
209588 tracker6 21:53 23/04/2021 35.2976875305 139.4888000488 1033122342021.0 0.9 199.2 1.0 8.0 0
209587 tracker6 21:53 23/04/2021 35.2976951599 139.4888305664 1033122342021.0 0.7 287.5 1.0 8.0 0
209586 tracker6 21:53 23/04/2021 35.2977142334 139.4888305664 1033122342021.0 0.7 287.5 1.0 8.0 0
209585 tracker6 21:53 23/04/2021 35.2977218628 139.4888305664 1033122342021.0 0.9 273.0 1.0 8.0 0
209584 tracker6 21:53 23/04/2021 35.2977218628 139.488861084 1033122342021.0 0.9 273.0 1.0 8.0 0
209583 tracker6 21:53 23/04/2021 35.2977104187 139.488861084 1033122342021.0 0.3 168.7 1.0 8.0 0
209582 tracker6 21:53 23/04/2021 35.2976837158 139.4888763428 1033122342021.0 0.3 168.7 1.0 8.0 0
209581 tracker6 21:52 23/04/2021 35.2976799011 139.4888763428 1033122342021.0 1.3 195.3 1.0 8.0 0
209580 tracker6 21:52 23/04/2021 35.2976875305 139.4888763428 1033122342021.0 1.3 195.3 1.0 8.0 0
209579 tracker6 21:52 23/04/2021 35.2977027893 139.488861084 1033122342021.0 0.4 295.0 1.0 8.0 0
209578 tracker6 21:52 23/04/2021 35.2977371216 139.4888763428 1033122342021.0 0.4 295.0 1.0 8.0 0
209577 tracker6 21:52 23/04/2021 35.2977676392 139.4888916016 1033122342021.0 0.7 235.9 1.0 8.0 0
209576 tracker6 21:52 23/04/2021 35.2977600098 139.4888763428 1033122342021.0 0.7 235.9 1.0 7.0 0
209575 tracker6 21:52 23/04/2021 35.2977561951 139.4888916016 1033122342021.0 0.3 170.9 1.0 7.0 0
209574 tracker6 21:52 23/04/2021 35.2977371216 139.4889068604 1033122342021.0 0.3 170.9 1.0 7.0 0
209573 tracker6 21:52 23/04/2021 35.2977333069 139.4889221191 1033122342021.0 0.4 170.9 1.0 7.0 0
209572 tracker6 21:52 23/04/2021 35.2977371216 139.4889221191 1033122342021.0 0.6 170.9 1.0 7.0 0
209571 tracker6 21:52 23/04/2021 35.2977294922 139.4889221191 1033122342021.0 0.3 218.2 1.0 7.0 0
209570 tracker6 21:52 23/04/2021 35.2977409363 139.4889221191 1033122342021.0 1.0 183.0 1.0 7.0 0
209569 tracker6 21:51 23/04/2021 35.2977294922 139.4889373779 1033122342021.0 1.0 183.0 1.0 8.0 0
209568 tracker6 21:51 23/04/2021 35.2977294922 139.4889678955 1033122342021.0 0.7 274.2 1.0 8.0 0
209567 tracker6 21:51 23/04/2021 35.2977485657 139.4889831543 1033122342021.0 0.7 274.2 1.0 8.0 0
209566 tracker6 21:51 23/04/2021 35.2977561951 139.4890136719 1033122342021.0 0.6 343.4 1.0 8.0 0
209565 tracker6 21:51 23/04/2021 35.2977485657 139.4890441895 1033122342021.0 0.6 343.4 1.0 8.0 0
209564 tracker6 21:51 23/04/2021 35.2977561951 139.4890441895 1033122342021.0 0.3 191.8 1.0 8.0 0
209563 tracker6 21:51 23/04/2021 35.2977485657 139.4890594482 1033122342021.0 0.3 191.8 1.0 7.0 0
209562 tracker6 21:51 23/04/2021 35.2977485657 139.489074707 1033122342021.0 0.6 182.9 1.0 8.0 0
209561 tracker6 21:51 23/04/2021 35.2977676392 139.4890899658 1033122342021.0 0.6 182.9 1.0 8.0 0
209560 tracker6 21:51 23/04/2021 35.297794342 139.4890899658 1033122342021.0 0.2 136.8 1.0 8.0 0
209559 tracker6 21:51 23/04/2021 35.2977981567 139.4890899658 1033122342021.0 0.2 136.8 1.0 8.0 0
209558 tracker6 21:51 23/04/2021 35.2977905273 139.4890899658 1033122342021.0 0.3 210.4 1.0 8.0 0
209557 tracker6 21:50 23/04/2021 35.2977867126 139.4890594482 1033122342021.0 0.3 210.4 1.0 8.0 0
209556 tracker6 21:50 23/04/2021 35.2977828979 139.4890594482 1033122342021.0 0.9 210.4 1.0 8.0 0
209555 tracker6 21:50 23/04/2021 35.2977790833 139.4890594482 1033122342021.0 0.9 196.6 1.0 8.0 0
209554 tracker6 21:50 23/04/2021 35.2977638245 139.4890899658 1033122342021.0 0.5 234.3 1.0 8.0 0
209553 tracker6 21:50 23/04/2021 35.2977600098 139.4891052246 1033122342021.0 0.9 182.3 1.0 8.0 0
209552 tracker6 21:50 23/04/2021 35.2977638245 139.4891052246 1033122342021.0 1.2 184.7 1.0 8.0 0
209551 tracker6 21:50 23/04/2021 35.2977752686 139.4891204834 1033122342021.0 0.5 182.1 1.0 8.0 0
209550 tracker6 21:50 23/04/2021 35.297794342 139.4891204834 1033122342021.0 0.3 182.1 1.0 8.0 0
209549 tracker6 21:50 23/04/2021 35.2977905273 139.4891204834 1033122342021.0 0.7 176.2 1.0 8.0 0
209548 tracker6 21:50 23/04/2021 35.2977867126 139.4891204834 1033122342021.0 0.5 307.8 1.0 8.0 0
209547 tracker6 21:50 23/04/2021 35.2977828979 139.4891357422 1033122342021.0 0.5 307.8 1.0 8.0 0
209546 tracker6 21:50 23/04/2021 35.2977867126 139.4891357422 1033122342021.0 0.7 307.8 1.0 8.0 0
209545 tracker6 21:49 23/04/2021 35.2977867126 139.489151001 1033122342021.0 0.4 179.1 1.0 8.0 0
209544 tracker6 21:49 23/04/2021 35.2977714539 139.4891662598 1033122342021.0 1.2 174.4 1.0 8.0 0
209543 tracker6 21:49 23/04/2021 35.297794342 139.4891662598 1033122342021.0 0.1 191.6 1.0 8.0 0
209542 tracker6 21:49 23/04/2021 35.2978096008 139.4891815186 1033122342021.0 0.7 188.8 1.0 8.0 0
209541 tracker6 21:49 23/04/2021 35.2978210449 139.4891967773 1033122342021.0 1.1 186.2 1.0 8.0 0
209540 tracker6 21:49 23/04/2021 35.2978172302 139.4892120361 1033122342021.0 0.7 226.3 1.0 8.0 0
209539 tracker6 21:49 23/04/2021 35.2978210449 139.4892120361 1033122342021.0 0.7 226.3 1.0 8.0 0
209538 tracker6 21:49 23/04/2021 35.2978401184 139.4892272949 1033122342021.0 0.6 216.2 1.0 8.0 0
209537 tracker6 21:49 23/04/2021 35.2978553772 139.4892272949 1033122342021.0 0.6 216.2 1.0 8.0 0
209536 tracker6 21:49 23/04/2021 35.2978591919 139.4892120361 1033122342021.0 0.4 216.2 1.0 8.0 0
209535 tracker6 21:49 23/04/2021 35.2978477478 139.4892120361 1033122342021.0 0.3 232.0 1.0 8.0 0
209534 tracker6 21:48 23/04/2021 35.2978401184 139.4892272949 1033122342021.0 0.6 191.4 1.0 8.0 0
209533 tracker6 21:48 23/04/2021 35.2978477478 139.4892425537 1033122342021.0 0.9 218.1 1.0 8.0 0
209532 tracker6 21:48 23/04/2021 35.2978477478 139.4892578125 1033122342021.0 0.9 218.1 1.0 8.0 0
209531 tracker6 21:48 23/04/2021 35.2978477478 139.4892883301 1033122342021.0 0.0 288.1 1.0 8.0 0
209530 tracker6 21:48 23/04/2021 35.2978515625 139.4893188477 1033122342021.0 0.0 288.1 1.0 8.0 0
209529 tracker6 21:48 23/04/2021 35.2978401184 139.4893341064 1033122342021.0 0.3 200.4 1.0 8.0 0
209528 tracker6 21:48 23/04/2021 35.2978248596 139.4893341064 1033122342021.0 0.3 200.4 1.0 8.0 0
209527 tracker6 21:48 23/04/2021 35.2978286743 139.4893493652 1033122342021.0 0.8 188.4 1.0 8.0 0
209526 tracker6 21:48 23/04/2021 35.2978401184 139.489364624 1033122342021.0 0.8 188.4 1.0 8.0 0
209525 tracker6 21:48 23/04/2021 35.2978668213 139.489364624 1033122342021.0 0.5 230.3 1.0 8.0 0
209524 tracker6 21:48 23/04/2021 35.2978363037 139.489364624 1033122342021.0 0.5 230.3 1.0 8.0 0
209523 tracker6 21:48 23/04/2021 35.2978401184 139.4893493652 1033122342021.0 0.5 196.6 1.0 8.0 0
209522 tracker6 21:47 23/04/2021 35.2978210449 139.4893798828 1033122342021.0 0.5 196.6 1.0 8.0 0
209521 tracker6 21:47 23/04/2021 35.2978248596 139.4893798828 1033122342021.0 0.5 196.6 1.0 8.0 0
209520 tracker6 21:47 23/04/2021 35.2978134155 139.4893798828 1033122342021.0 0.6 196.6 1.0 8.0 0
209519 tracker6 21:47 23/04/2021 35.2978096008 139.4893798828 1033122342021.0 0.4 196.6 1.0 8.0 0
209518 tracker6 21:47 23/04/2021 35.2978096008 139.4893951416 1033122342021.0 1.5 190.9 1.0 8.0 0
209517 tracker6 21:47 23/04/2021 35.2977867126 139.4893951416 1033122342021.0 1.5 190.9 1.0 7.0 0
209516 tracker6 21:47 23/04/2021 35.2978057861 139.4893951416 1033122342021.0 1.4 182.8 1.0 7.0 0
209515 tracker6 21:47 23/04/2021 35.2978172302 139.4894104004 1033122342021.0 0.6 342.3 1.0 7.0 0
209514 tracker6 21:47 23/04/2021 35.2978477478 139.4893951416 1033122342021.0 0.6 342.3 1.0 7.0 0
209513 tracker6 21:47 23/04/2021 35.2978515625 139.4893951416 1033122342021.0 0.3 126.0 1.0 7.0 0
209512 tracker6 21:47 23/04/2021 35.2978477478 139.4893951416 1033122342021.0 0.3 213.8 1.0 7.0 0
209511 tracker6 21:47 23/04/2021 35.2978439331 139.4893951416 1033122342021.0 0.3 213.8 1.0 7.0 0
209510 tracker6 21:46 23/04/2021 35.2978477478 139.4894104004 1033122342021.0 0.6 325.6 1.0 7.0 0
209509 tracker6 21:46 23/04/2021 35.2978477478 139.4894256592 1033122342021.0 0.6 325.6 1.0 7.0 0
209508 tracker6 21:46 23/04/2021 35.297870636 139.489440918 1033122342021.0 0.9 0.7 1.0 7.0 0
209507 tracker6 21:46 23/04/2021 35.2978668213 139.489440918 1033122342021.0 1.2 170.4 1.0 7.0 0
209506 tracker6 21:46 23/04/2021 35.2978439331 139.4894256592 1033122342021.0 0.5 178.0 1.0 7.0 0
209505 tracker6 21:46 23/04/2021 35.2978477478 139.489440918 1033122342021.0 0.9 219.4 1.0 7.0 0
209504 tracker6 21:46 23/04/2021 35.2978668213 139.4894104004 1033122342021.0 0.9 219.4 1.0 7.0 0
209503 tracker6 21:46 23/04/2021 35.297908783 139.4894104004 1033122342021.0 1.0 215.4 1.0 7.0 0
209502 tracker6 21:46 23/04/2021 35.2979125977 139.4894104004 1033122342021.0 0.7 191.1 1.0 7.0 0
209501 tracker6 21:46 23/04/2021 35.2979469299 139.489440918 1033122342021.0 1.1 235.9 1.0 9.0 0
209500 tracker6 21:46 23/04/2021 35.2979354858 139.4894714355 1033122342021.0 0.2 161.2 1.0 9.0 0
209499 tracker6 21:45 23/04/2021 35.2979431152 139.4895172119 1033122342021.0 0.8 195.9 1.0 9.0 0
209498 tracker6 21:45 23/04/2021 35.2979393005 139.4895324707 1033122342021.0 0.4 225.6 1.0 9.0 0
209497 tracker6 21:45 23/04/2021 35.297958374 139.4895477295 1033122342021.0 0.4 225.6 1.0 9.0 0
209496 tracker6 21:45 23/04/2021 35.2979660034 139.4895477295 1033122342021.0 0.3 225.6 1.0 9.0 0
209495 tracker6 21:45 23/04/2021 35.2979621887 139.4895477295 1033122342021.0 0.3 225.6 1.0 9.0 0
209494 tracker6 21:45 23/04/2021 35.2979621887 139.4895629883 1033122342021.0 0.3 165.0 1.0 9.0 0
209493 tracker6 21:45 23/04/2021 35.2979469299 139.4895935059 1033122342021.0 0.3 122.9 1.0 9.0 0
209492 tracker6 21:45 23/04/2021 35.2979507446 139.4895935059 1033122342021.0 0.3 122.9 1.0 9.0 0
209491 tracker6 21:45 23/04/2021 35.2979469299 139.4895935059 1033122342021.0 0.8 172.2 1.0 9.0 0
209490 tracker6 21:45 23/04/2021 35.2979431152 139.4895935059 1033122342021.0 0.8 172.2 1.0 9.0 0
209489 tracker6 21:45 23/04/2021 35.2979545593 139.4895935059 1033122342021.0 0.6 207.1 1.0 9.0 0
209488 tracker6 21:45 23/04/2021 35.2979621887 139.4895935059 1033122342021.0 0.7 173.2 1.0 9.0 0
209487 tracker6 21:44 23/04/2021 35.297958374 139.4895935059 1033122342021.0 0.8 151.8 1.0 9.0 0
209486 tracker6 21:44 23/04/2021 35.2979698181 139.4895935059 1033122342021.0 0.8 151.8 1.0 9.0 0
209485 tracker6 21:44 23/04/2021 35.2979774475 139.4895935059 1033122342021.0 0.6 345.9 1.0 9.0 0
209484 tracker6 21:44 23/04/2021 35.2979850769 139.4896087646 1033122342021.0 0.6 345.9 1.0 9.0 0
209483 tracker6 21:44 23/04/2021 35.2979698181 139.489654541 1033122342021.0 0.8 150.9 1.0 9.0 0
209482 tracker6 21:44 23/04/2021 35.2979469299 139.4896697998 1033122342021.0 0.8 150.9 1.0 9.0 0
209481 tracker6 21:44 23/04/2021 35.2979393005 139.4896697998 1033122342021.0 0.3 173.4 1.0 9.0 0
209480 tracker6 21:44 23/04/2021 35.2979507446 139.4896697998 1033122342021.0 0.3 173.4 1.0 9.0 0
209479 tracker6 21:44 23/04/2021 35.2979469299 139.4896697998 1033122342021.0 0.3 194.7 1.0 9.0 0
209478 tracker6 21:44 23/04/2021 35.2979431152 139.4896697998 1033122342021.0 0.3 194.7 1.0 9.0 0
209477 tracker6 21:44 23/04/2021 35.2979545593 139.4896697998 1033122342021.0 0.2 171.8 1.0 9.0 0
209476 tracker6 21:44 23/04/2021 35.2979469299 139.4897003174 1033122342021.0 0.2 171.8 1.0 9.0 0
209475 tracker6 21:43 23/04/2021 35.2979545593 139.4897003174 1033122342021.0 0.8 197.2 1.0 9.0 0
209474 tracker6 21:43 23/04/2021 35.2979545593 139.4896697998 1033122342021.0 0.8 197.2 1.0 9.0 0
209473 tracker6 21:43 23/04/2021 35.2979698181 139.4896850586 1033122342021.0 0.5 172.0 1.0 9.0 0
209472 tracker6 21:43 23/04/2021 35.2979927063 139.4897003174 1033122342021.0 0.5 172.0 1.0 9.0 0
209471 tracker6 21:43 23/04/2021 35.2980232239 139.4896850586 1033122342021.0 0.8 224.7 1.0 9.0 0
209470 tracker6 21:43 23/04/2021 35.2980270386 139.4897003174 1033122342021.0 0.8 224.7 1.0 9.0 0
209469 tracker6 21:43 23/04/2021 35.2980270386 139.4897155762 1033122342021.0 0.5 316.8 1.0 9.0 0
209468 tracker6 21:43 23/04/2021 35.2980079651 139.4897155762 1033122342021.0 0.5 316.8 1.0 9.0 0
209467 tracker6 21:43 23/04/2021 35.2979812622 139.4897155762 1033122342021.0 0.7 290.5 1.0 9.0 0
209466 tracker6 21:43 23/04/2021 35.2979698181 139.4897155762 1033122342021.0 0.3 256.4 1.0 9.0 0
209465 tracker6 21:43 23/04/2021 35.2979469299 139.489730835 1033122342021.0 0.3 256.4 1.0 8.0 0
209464 tracker6 21:42 23/04/2021 35.2979278564 139.4897460938 1033122342021.0 0.7 206.4 1.0 8.0 0
209463 tracker6 21:42 23/04/2021 35.2979393005 139.4897613525 1033122342021.0 0.9 197.6 1.0 8.0 0
209462 tracker6 21:42 23/04/2021 35.2979698181 139.4897766113 1033122342021.0 0.7 264.5 1.0 8.0 0
209461 tracker6 21:42 23/04/2021 35.2979736328 139.4897918701 1033122342021.0 1.2 182.7 1.0 9.0 0
209460 tracker6 21:42 23/04/2021 35.2979850769 139.4897918701 1033122342021.0 0.7 226.6 1.0 9.0 0
209459 tracker6 21:42 23/04/2021 35.297996521 139.4897918701 1033122342021.0 1.1 184.1 1.0 9.0 0
209458 tracker6 21:42 23/04/2021 35.2980041504 139.4898071289 1033122342021.0 1.1 194.9 1.0 9.0 0
209457 tracker6 21:42 23/04/2021 35.2980270386 139.4898071289 1033122342021.0 0.2 315.5 1.0 9.0 0
209456 tracker6 21:42 23/04/2021 35.2980270386 139.4898376465 1033122342021.0 0.7 303.6 1.0 9.0 0
209455 tracker6 21:42 23/04/2021 35.297996521 139.4898376465 1033122342021.0 0.2 162.5 1.0 9.0 0
209454 tracker6 21:42 23/04/2021 35.2979927063 139.4898376465 1033122342021.0 0.5 229.2 1.0 9.0 0
209453 tracker6 21:42 23/04/2021 35.2979927063 139.4898529053 1033122342021.0 0.4 229.2 1.0 9.0 0
209452 tracker6 21:41 23/04/2021 35.2979888916 139.4898529053 1033122342021.0 0.7 174.1 1.0 9.0 0
209451 tracker6 21:41 23/04/2021 35.2980079651 139.4898834229 1033122342021.0 0.9 197.3 1.0 9.0 0
209450 tracker6 21:41 23/04/2021 35.2980194092 139.4898834229 1033122342021.0 0.1 170.9 1.0 9.0 0
209449 tracker6 21:41 23/04/2021 35.2980155945 139.4898986816 1033122342021.0 0.8 170.9 1.0 9.0 0
209448 tracker6 21:41 23/04/2021 35.2980194092 139.4898986816 1033122342021.0 0.7 197.6 1.0 9.0 0
209447 tracker6 21:41 23/04/2021 35.2980194092 139.4898834229 1033122342021.0 0.3 178.7 1.0 9.0 0
209446 tracker6 21:41 23/04/2021 35.2980079651 139.4898986816 1033122342021.0 0.7 174.9 1.0 9.0 0
209445 tracker6 21:41 23/04/2021 35.297996521 139.4899139404 1033122342021.0 0.9 163.7 1.0 9.0 0
209444 tracker6 21:41 23/04/2021 35.2979927063 139.4899139404 1033122342021.0 1.3 166.2 1.0 9.0 0
209443 tracker6 21:41 23/04/2021 35.2980194092 139.4899139404 1033122342021.0 0.8 292.3 1.0 9.0 0
209442 tracker6 21:41 23/04/2021 35.2980308533 139.4899139404 1033122342021.0 0.7 96.1 1.0 9.0 0
209441 tracker6 21:40 23/04/2021 35.2980232239 139.489944458 1033122342021.0 0.7 96.1 1.0 9.0 0
209440 tracker6 21:40 23/04/2021 35.2980270386 139.4899902344 1033122342021.0 0.2 104.0 1.0 9.0 0
209439 tracker6 21:40 23/04/2021 35.298034668 139.4899902344 1033122342021.0 0.2 104.0 1.0 9.0 0
209438 tracker6 21:40 23/04/2021 35.2980384827 139.4899902344 1033122342021.0 0.2 104.0 1.0 9.0 0
209437 tracker6 21:40 23/04/2021 35.2980499268 139.4899902344 1033122342021.0 0.8 110.8 1.0 9.0 0
209436 tracker6 21:40 23/04/2021 35.2980422974 139.4899902344 1033122342021.0 0.8 110.8 1.0 9.0 0
209435 tracker6 21:40 23/04/2021 35.2980384827 139.4899902344 1033122342021.0 0.8 110.8 1.0 9.0 0
209434 tracker6 21:40 23/04/2021 35.2980422974 139.4899749756 1033122342021.0 0.7 126.0 1.0 9.0 0
209433 tracker6 21:40 23/04/2021 35.2980461121 139.4899597168 1033122342021.0 0.7 126.0 1.0 9.0 0
209432 tracker6 21:40 23/04/2021 35.2980575562 139.489944458 1033122342021.0 0.6 165.6 1.0 9.0 0
209431 tracker6 21:40 23/04/2021 35.2980613708 139.4899291992 1033122342021.0 0.6 200.8 1.0 8.0 0
209430 tracker6 21:40 23/04/2021 35.2980690002 139.489944458 1033122342021.0 0.8 200.8 1.0 8.0 0
209429 tracker6 21:40 23/04/2021 35.2980728149 139.489944458 1033122342021.0 0.2 189.6 1.0 9.0 0
209428 tracker6 21:39 23/04/2021 35.2980766296 139.4899291992 1033122342021.0 0.2 178.1 1.0 8.0 0
209427 tracker6 21:39 23/04/2021 35.2980575562 139.4899291992 1033122342021.0 0.2 178.1 1.0 8.0 0
209426 tracker6 21:39 23/04/2021 35.2980690002 139.489944458 1033122342021.0 1.1 222.1 1.0 9.0 0
209425 tracker6 21:39 23/04/2021 35.2980728149 139.489944458 1033122342021.0 1.1 222.1 1.0 9.0 0
209424 tracker6 21:39 23/04/2021 35.2980766296 139.4899749756 1033122342021.0 1.1 6.5 1.0 9.0 0
209423 tracker6 21:39 23/04/2021 35.2980880737 139.490020752 1033122342021.0 1.1 6.5 1.0 9.0 0
209422 tracker6 21:39 23/04/2021 35.2980918884 139.490020752 1033122342021.0 0.1 196.5 1.0 9.0 0
209421 tracker6 21:39 23/04/2021 35.2980728149 139.490020752 1033122342021.0 0.1 196.5 1.0 9.0 0
209420 tracker6 21:39 23/04/2021 35.2980575562 139.490020752 1033122342021.0 1.5 172.3 1.0 9.0 0
209419 tracker6 21:39 23/04/2021 35.2980384827 139.4900054932 1033122342021.0 1.5 172.3 1.0 9.0 0
209418 tracker6 21:39 23/04/2021 35.2980270386 139.4900054932 1033122342021.0 0.9 207.1 1.0 9.0 0
209417 tracker6 21:39 23/04/2021 35.298034668 139.490020752 1033122342021.0 0.9 207.1 1.0 9.0 0
209416 tracker6 21:38 23/04/2021 35.2980461121 139.4900054932 1033122342021.0 0.7 305.6 1.0 9.0 0
209415 tracker6 21:38 23/04/2021 35.2980537415 139.490020752 1033122342021.0 0.7 305.6 1.0 9.0 0
209414 tracker6 21:38 23/04/2021 35.2980575562 139.4900512695 1033122342021.0 0.8 142.1 1.0 9.0 0
209413 tracker6 21:38 23/04/2021 35.2980461121 139.4900665283 1033122342021.0 0.8 142.1 1.0 9.0 0
209412 tracker6 21:38 23/04/2021 35.2980651855 139.4900665283 1033122342021.0 0.7 144.2 1.0 9.0 0
209411 tracker6 21:38 23/04/2021 35.2980690002 139.4900817871 1033122342021.0 0.7 144.2 1.0 9.0 0
209410 tracker6 21:38 23/04/2021 35.2980804443 139.4900817871 1033122342021.0 0.6 156.4 1.0 9.0 0
209409 tracker6 21:38 23/04/2021 35.2980880737 139.4900665283 1033122342021.0 0.6 156.4 1.0 9.0 0
209408 tracker6 21:38 23/04/2021 35.2980995178 139.4900512695 1033122342021.0 0.4 297.2 1.0 9.0 0
209407 tracker6 21:38 23/04/2021 35.2981033325 139.4900360107 1033122342021.0 1.1 215.9 1.0 9.0 0
209406 tracker6 21:38 23/04/2021 35.2980804443 139.4900665283 1033122342021.0 0.9 191.4 1.0 9.0 0
209405 tracker6 21:38 23/04/2021 35.2981109619 139.4900665283 1033122342021.0 1.2 221.6 1.0 9.0 0
209404 tracker6 21:37 23/04/2021 35.2981300354 139.4900817871 1033122342021.0 0.3 213.4 1.0 9.0 0
209403 tracker6 21:37 23/04/2021 35.2980880737 139.4900817871 1033122342021.0 0.3 213.4 1.0 9.0 0
209402 tracker6 21:37 23/04/2021 35.2980918884 139.4900817871 1033122342021.0 1.6 178.2 1.0 9.0 0
209401 tracker6 21:37 23/04/2021 35.2980766296 139.4900665283 1033122342021.0 1.6 178.2 1.0 8.0 0
209400 tracker6 21:37 23/04/2021 35.2980613708 139.4900665283 1033122342021.0 1.5 195.5 1.0 8.0 0
209399 tracker6 21:37 23/04/2021 35.2980575562 139.4900817871 1033122342021.0 1.5 195.5 1.0 8.0 0
209398 tracker6 21:37 23/04/2021 35.2980384827 139.4900817871 1033122342021.0 1.7 229.6 1.0 8.0 0
209397 tracker6 21:37 23/04/2021 35.2980461121 139.4900817871 1033122342021.0 1.7 229.6 1.0 8.0 0
209396 tracker6 21:37 23/04/2021 35.2980422974 139.4900970459 1033122342021.0 1.0 185.4 1.0 8.0 0
209395 tracker6 21:37 23/04/2021 35.2980308533 139.4901428223 1033122342021.0 1.0 185.4 1.0 9.0 0
209394 tracker6 21:37 23/04/2021 35.2980728149 139.4901580811 1033122342021.0 1.0 175.6 1.0 9.0 0
209393 tracker6 21:37 23/04/2021 35.2980690002 139.4901580811 1033122342021.0 1.0 175.6 1.0 9.0 0
209392 tracker6 21:36 23/04/2021 35.2980804443 139.4901428223 1033122342021.0 1.1 193.4 1.0 9.0 0
209391 tracker6 21:36 23/04/2021 35.2980690002 139.4901428223 1033122342021.0 1.1 193.4 1.0 9.0 0
209390 tracker6 21:36 23/04/2021 35.2980880737 139.4901733398 1033122342021.0 1.6 187.4 1.0 9.0 0
209389 tracker6 21:36 23/04/2021 35.298084259 139.4901733398 1033122342021.0 1.1 257.4 1.0 9.0 0
209388 tracker6 21:36 23/04/2021 35.2980995178 139.4901733398 1033122342021.0 1.8 199.6 1.0 9.0 0
209387 tracker6 21:36 23/04/2021 35.2980766296 139.4901885986 1033122342021.0 1.8 199.6 1.0 9.0 0
209386 tracker6 21:36 23/04/2021 35.2980117798 139.4902191162 1033122342021.0 1.3 212.2 1.0 9.0 0
209385 tracker6 21:36 23/04/2021 35.298034668 139.4902191162 1033122342021.0 1.3 212.2 1.0 9.0 0
209384 tracker6 21:36 23/04/2021 35.2980499268 139.490234375 1033122342021.0 1.1 186.0 1.0 9.0 0
209383 tracker6 21:36 23/04/2021 35.2980461121 139.490234375 1033122342021.0 1.1 186.0 1.0 9.0 0
209382 tracker6 21:36 23/04/2021 35.2980575562 139.490234375 1033122342021.0 0.6 157.4 1.0 7.0 0
209381 tracker6 21:35 23/04/2021 35.2980766296 139.490234375 1033122342021.0 0.6 157.4 1.0 7.0 0
209380 tracker6 21:35 23/04/2021 35.2980804443 139.490234375 1033122342021.0 1.3 229.3 1.0 7.0 0
209379 tracker6 21:35 23/04/2021 35.298084259 139.4902191162 1033122342021.0 1.3 229.3 1.0 8.0 0
209378 tracker6 21:35 23/04/2021 35.2981185913 139.490234375 1033122342021.0 0.5 194.3 1.0 9.0 0
209377 tracker6 21:35 23/04/2021 35.2981338501 139.490234375 1033122342021.0 0.5 194.3 1.0 9.0 0
209376 tracker6 21:35 23/04/2021 35.2981452942 139.4902496338 1033122342021.0 0.8 266.2 1.0 9.0 0
209375 tracker6 21:35 23/04/2021 35.2981376648 139.4902496338 1033122342021.0 0.8 266.2 1.0 9.0 0
209374 tracker6 21:35 23/04/2021 35.2981414795 139.4902648926 1033122342021.0 1.3 184.0 1.0 8.0 0
209373 tracker6 21:35 23/04/2021 35.2981071472 139.4902496338 1033122342021.0 1.3 184.0 1.0 8.0 0
209372 tracker6 21:35 23/04/2021 35.2980995178 139.4902648926 1033122342021.0 0.5 249.1 1.0 8.0 0
209371 tracker6 21:35 23/04/2021 35.2981262207 139.4902496338 1033122342021.0 0.5 249.1 1.0 9.0 0
209370 tracker6 21:35 23/04/2021 35.2981567383 139.4902496338 1033122342021.0 0.5 235.6 1.0 10.0 0
209369 tracker6 21:34 23/04/2021 35.2981796265 139.490234375 1033122342021.0 0.5 235.6 1.0 10.0 0
209368 tracker6 21:34 23/04/2021 35.2981758118 139.490234375 1033122342021.0 1.3 263.7 1.0 10.0 0
209367 tracker6 21:34 23/04/2021 35.2981719971 139.490234375 1033122342021.0 1.3 263.7 1.0 10.0 0
209366 tracker6 21:34 23/04/2021 35.2981681824 139.4902496338 1033122342021.0 0.8 243.8 1.0 8.0 0
209365 tracker6 21:34 23/04/2021 35.2981681824 139.4902648926 1033122342021.0 0.8 243.8 1.0 9.0 0
209364 tracker6 21:34 23/04/2021 35.2981567383 139.4902954102 1033122342021.0 0.3 274.9 1.0 9.0 0
209363 tracker6 21:34 23/04/2021 35.298160553 139.4903106689 1033122342021.0 0.3 274.9 1.0 9.0 0
209362 tracker6 21:34 23/04/2021 35.2981529236 139.4903106689 1033122342021.0 0.9 262.0 1.0 9.0 0
209361 tracker6 21:34 23/04/2021 35.2981567383 139.4903106689 1033122342021.0 0.9 262.0 1.0 9.0 0
209360 tracker6 21:34 23/04/2021 35.2981491089 139.4903411865 1033122342021.0 0.5 215.0 1.0 9.0 0
209359 tracker6 21:34 23/04/2021 35.2981452942 139.4903411865 1033122342021.0 0.3 219.5 1.0 9.0 0
209358 tracker6 21:34 23/04/2021 35.2981414795 139.4903564453 1033122342021.0 0.4 277.5 1.0 9.0 0
209357 tracker6 21:33 23/04/2021 35.2981452942 139.4903717041 1033122342021.0 0.3 277.5 1.0 9.0 0
209356 tracker6 21:33 23/04/2021 35.2981529236 139.4903717041 1033122342021.0 0.7 267.2 1.0 8.0 0
209355 tracker6 21:33 23/04/2021 35.2981491089 139.4903869629 1033122342021.0 0.7 190.1 1.0 8.0 0
209354 tracker6 21:33 23/04/2021 35.2981414795 139.4904174805 1033122342021.0 0.7 329.4 1.0 8.0 0
209353 tracker6 21:33 23/04/2021 35.2981452942 139.4904174805 1033122342021.0 0.5 114.9 1.0 8.0 0
209352 tracker6 21:33 23/04/2021 35.2981529236 139.4904327393 1033122342021.0 0.7 172.9 1.0 8.0 0
209351 tracker6 21:33 23/04/2021 35.2981643677 139.4904174805 1033122342021.0 1.0 261.1 1.0 8.0 0
209350 tracker6 21:33 23/04/2021 35.2981758118 139.4904022217 1033122342021.0 0.3 270.6 1.0 9.0 0
209349 tracker6 21:33 23/04/2021 35.2981796265 139.4904022217 1033122342021.0 2.2 328.3 1.0 10.0 0
209348 tracker6 21:33 23/04/2021 35.2981834412 139.4904174805 1033122342021.0 2.5 350.8 1.0 10.0 0
209347 tracker6 21:33 23/04/2021 35.2981529236 139.490447998 1033122342021.0 0.6 249.2 1.0 10.0 0
209346 tracker6 21:03 23/04/2021 35.2970962524 139.4872589111 625112342021.0 0.1 320.6 1.0 9.0 0
209345 tracker6 21:03 23/04/2021 35.2971115112 139.4872741699 625112342021.0 0.4 320.6 1.0 10.0 0
209344 tracker6 21:03 23/04/2021 35.2971153259 139.4872894287 625112342021.0 0.3 320.6 1.0 10.0 0
209343 tracker6 21:03 23/04/2021 35.2971420288 139.4872741699 625112342021.0 1.1 315.3 1.0 10.0 0
209342 tracker6 21:03 23/04/2021 35.2971763611 139.4872741699 625112342021.0 0.9 315.1 1.0 10.0 0
209341 tracker6 21:03 23/04/2021 35.2971687317 139.4872894287 625112342021.0 0.7 288.9 1.0 10.0 0
209340 tracker6 21:03 23/04/2021 35.2971725464 139.4872894287 625112342021.0 0.2 231.9 1.0 10.0 0
209339 tracker6 21:02 23/04/2021 35.2971687317 139.4873352051 625112342021.0 0.2 231.9 1.0 10.0 0
209338 tracker6 21:02 23/04/2021 35.297164917 139.4873352051 625112342021.0 0.2 231.9 1.0 10.0 0
209337 tracker6 21:02 23/04/2021 35.2971878052 139.4873504639 625112342021.0 0.4 353.5 1.0 10.0 0
209336 tracker6 21:02 23/04/2021 35.2971916199 139.4873657227 625112342021.0 1.0 223.9 1.0 10.0 0
209335 tracker6 21:02 23/04/2021 35.2971687317 139.4873657227 625112342021.0 1.0 223.9 1.0 10.0 0
209334 tracker6 21:02 23/04/2021 35.297164917 139.4873657227 625112342021.0 0.3 259.4 1.0 10.0 0
209333 tracker6 21:02 23/04/2021 35.2971725464 139.4873657227 625112342021.0 0.3 259.4 1.0 10.0 0
209332 tracker6 21:02 23/04/2021 35.2971725464 139.4873809814 625112342021.0 0.6 292.3 1.0 10.0 0
209331 tracker6 21:02 23/04/2021 35.2971763611 139.4873809814 625112342021.0 0.6 292.3 1.0 10.0 0
209330 tracker6 21:02 23/04/2021 35.297164917 139.4873809814 625112342021.0 0.6 292.3 1.0 10.0 0
209329 tracker6 21:02 23/04/2021 35.2971611023 139.4873809814 625112342021.0 0.6 292.3 1.0 10.0 0
209328 tracker6 21:02 23/04/2021 35.2971725464 139.487411499 625112342021.0 0.6 292.3 1.0 0.0 0
209327 tracker6 21:01 23/04/2021 35.2971839905 139.487411499 625112342021.0 1.0 191.4 1.0 10.0 0
209326 tracker6 21:01 23/04/2021 35.2971687317 139.4874420166 625112342021.0 1.0 191.4 1.0 10.0 0
209325 tracker6 21:01 23/04/2021 35.2971611023 139.4874420166 625112342021.0 0.8 223.7 1.0 10.0 0
209324 tracker6 21:01 23/04/2021 35.2971839905 139.4874420166 625112342021.0 0.8 223.7 1.0 10.0 0
209323 tracker6 21:01 23/04/2021 35.297203064 139.4874572754 625112342021.0 0.6 199.2 1.0 10.0 0
209322 tracker6 21:01 23/04/2021 35.2972259521 139.4874572754 625112342021.0 0.6 199.2 1.0 10.0 0
209321 tracker6 21:01 23/04/2021 35.2972297668 139.4874725342 625112342021.0 0.6 199.2 1.0 9.0 0
209320 tracker6 21:01 23/04/2021 35.2972259521 139.487487793 625112342021.0 0.6 199.2 1.0 9.0 0
209319 tracker6 21:01 23/04/2021 35.2972106934 139.4875030518 625112342021.0 0.6 199.2 1.0 9.0 0
209318 tracker6 21:01 23/04/2021 35.2971916199 139.4875183105 625112342021.0 0.6 199.2 1.0 9.0 0
209317 tracker6 21:01 23/04/2021 35.2971801758 139.4875335693 625112342021.0 0.6 199.2 1.0 9.0 0
209316 tracker6 21:00 23/04/2021 35.2971687317 139.4875335693 625112342021.0 0.6 199.2 1.0 9.0 0
209315 tracker6 21:00 23/04/2021 35.2971534729 139.4875640869 625112342021.0 0.6 199.2 1.0 9.0 0
209314 tracker6 21:00 23/04/2021 35.2971725464 139.4875640869 625112342021.0 0.6 199.2 1.0 9.0 0
209313 tracker6 21:00 23/04/2021 35.2971954346 139.4875793457 625112342021.0 0.6 199.2 1.0 9.0 0
209312 tracker6 21:00 23/04/2021 35.2972145081 139.4875793457 625112342021.0 0.6 199.2 1.0 9.0 0
209311 tracker6 21:00 23/04/2021 35.2972183228 139.4875946045 625112342021.0 0.6 199.2 1.0 9.0 0
209310 tracker6 21:00 23/04/2021 35.2972106934 139.4876098633 625112342021.0 0.6 199.2 1.0 9.0 0
209309 tracker6 21:00 23/04/2021 35.2972145081 139.4876251221 625112342021.0 0.6 199.2 1.0 9.0 0
209308 tracker6 21:00 23/04/2021 35.2971954346 139.4876403809 625112342021.0 0.6 199.2 1.0 9.0 0
209307 tracker6 21:00 23/04/2021 35.2972145081 139.4876556396 625112342021.0 0.6 199.2 1.0 9.0 0
209306 tracker6 21:00 23/04/2021 35.2972221375 139.4876556396 625112342021.0 0.6 199.2 1.0 9.0 0
209305 tracker6 21:00 23/04/2021 35.2972450256 139.4876556396 625112342021.0 0.2 249.3 1.0 9.0 0
209304 tracker6 21:00 23/04/2021 35.2972488403 139.4876708984 625112342021.0 0.2 249.3 1.0 9.0 0
209303 tracker6 20:59 23/04/2021 35.297252655 139.4876708984 625112342021.0 0.9 218.4 1.0 9.0 0
209302 tracker6 20:59 23/04/2021 35.2972602844 139.4876861572 625112342021.0 0.4 323.7 1.0 9.0 0
209301 tracker6 20:59 23/04/2021 35.2972946167 139.4876861572 625112342021.0 0.3 203.1 1.0 9.0 0
209300 tracker6 20:59 23/04/2021 35.2972869873 139.4876861572 625112342021.0 0.5 203.1 1.0 9.0 0
209299 tracker6 20:59 23/04/2021 35.2972946167 139.4876708984 625112342021.0 0.3 298.1 1.0 9.0 0
209298 tracker6 20:59 23/04/2021 35.2973060608 139.4876861572 625112342021.0 0.5 299.8 1.0 9.0 0
209297 tracker6 20:59 23/04/2021 35.2972946167 139.4877166748 625112342021.0 0.1 299.8 1.0 9.0 0
209296 tracker6 20:59 23/04/2021 35.2972946167 139.4877319336 625112342021.0 0.1 299.8 1.0 9.0 0
209295 tracker6 20:59 23/04/2021 35.2972984314 139.4877319336 625112342021.0 0.6 299.8 1.0 9.0 0
209294 tracker6 20:59 23/04/2021 35.2973022461 139.4877319336 625112342021.0 0.6 299.8 1.0 9.0 0
209293 tracker6 20:59 23/04/2021 35.2973136902 139.4877166748 625112342021.0 0.2 274.7 1.0 9.0 0
209292 tracker6 20:59 23/04/2021 35.2973213196 139.4877319336 625112342021.0 0.2 274.7 1.0 9.0 0
209291 tracker6 20:58 23/04/2021 35.2973175049 139.4877319336 625112342021.0 0.7 299.0 1.0 9.0 0
209290 tracker6 20:58 23/04/2021 35.2973251343 139.4877319336 625112342021.0 0.7 299.0 1.0 9.0 0
209289 tracker6 20:58 23/04/2021 35.2973594666 139.4877319336 625112342021.0 0.2 182.8 1.0 9.0 0
209288 tracker6 20:58 23/04/2021 35.2973747253 139.4877471924 625112342021.0 0.2 182.8 1.0 9.0 0
209287 tracker6 20:58 23/04/2021 35.2974052429 139.4877624512 625112342021.0 0.2 182.8 1.0 9.0 0
209286 tracker6 20:58 23/04/2021 35.29737854 139.48777771 625112342021.0 0.2 182.8 1.0 9.0 0
209285 tracker6 20:58 23/04/2021 35.2973594666 139.4877929688 625112342021.0 0.2 182.8 1.0 9.0 0
209284 tracker6 20:58 23/04/2021 35.2973556519 139.4877929688 625112342021.0 0.2 182.8 1.0 9.0 0
209283 tracker6 20:58 23/04/2021 35.2973709106 139.48777771 625112342021.0 0.8 185.8 1.0 9.0 0
209282 tracker6 20:58 23/04/2021 35.2973937988 139.48777771 625112342021.0 0.7 241.4 1.0 9.0 0
209281 tracker6 20:58 23/04/2021 35.2974090576 139.48777771 625112342021.0 0.7 245.7 1.0 9.0 0
209280 tracker6 20:57 23/04/2021 35.2974128723 139.4877929688 625112342021.0 0.5 274.5 1.0 9.0 0
209279 tracker6 20:57 23/04/2021 35.2973899841 139.4878082275 625112342021.0 1.1 310.9 1.0 9.0 0
209278 tracker6 20:57 23/04/2021 35.2973937988 139.4878234863 625112342021.0 0.8 298.8 1.0 9.0 0
209277 tracker6 20:57 23/04/2021 35.297328949 139.4878692627 625112342021.0 0.8 224.7 1.0 9.0 0
209276 tracker6 20:57 23/04/2021 35.2973136902 139.4879150391 625112342021.0 0.6 301.3 1.0 9.0 0
209275 tracker6 20:57 23/04/2021 35.2973327637 139.4879302979 625112342021.0 0.9 194.2 1.0 9.0 0
209274 tracker6 20:57 23/04/2021 35.2973365784 139.4879455566 625112342021.0 0.8 161.7 1.0 9.0 0
209273 tracker6 20:57 23/04/2021 35.2973403931 139.4879455566 625112342021.0 0.5 223.1 1.0 9.0 0
209272 tracker6 20:57 23/04/2021 35.2973365784 139.4879455566 625112342021.0 1.0 203.9 1.0 9.0 0
209271 tracker6 20:57 23/04/2021 35.2973442078 139.4879608154 625112342021.0 1.1 146.8 1.0 9.0 0
209270 tracker6 20:57 23/04/2021 35.2973556519 139.4879760742 625112342021.0 0.7 225.5 1.0 9.0 0
209269 tracker6 20:56 23/04/2021 35.2973747253 139.4879455566 625112342021.0 0.9 264.1 1.0 9.0 0
209268 tracker6 20:56 23/04/2021 35.2973937988 139.4879608154 625112342021.0 0.4 211.6 1.0 9.0 0
209267 tracker6 20:56 23/04/2021 35.2973823547 139.487991333 625112342021.0 0.9 211.6 1.0 9.0 0
209266 tracker6 20:56 23/04/2021 35.29737854 139.4879760742 625112342021.0 1.0 189.0 1.0 9.0 0
209265 tracker6 20:56 23/04/2021 35.2973899841 139.487991333 625112342021.0 0.7 221.6 1.0 10.0 0
209264 tracker6 20:56 23/04/2021 35.2973976135 139.4880065918 625112342021.0 0.7 238.1 1.0 10.0 0
209263 tracker6 20:56 23/04/2021 35.2974319458 139.4880218506 625112342021.0 0.5 273.8 1.0 10.0 0
209262 tracker6 20:56 23/04/2021 35.2974510193 139.4880065918 625112342021.0 0.5 273.8 1.0 10.0 0
209261 tracker6 20:56 23/04/2021 35.2974624634 139.4880065918 625112342021.0 0.5 273.8 1.0 10.0 0
209260 tracker6 20:56 23/04/2021 35.2974586487 139.4880065918 625112342021.0 0.4 273.8 1.0 10.0 0
209259 tracker6 20:56 23/04/2021 35.297454834 139.4880065918 625112342021.0 0.3 273.8 1.0 10.0 0
209258 tracker6 20:55 23/04/2021 35.2974510193 139.4880218506 625112342021.0 0.6 317.5 1.0 10.0 0
209257 tracker6 20:55 23/04/2021 35.2974700928 139.4880218506 625112342021.0 0.5 282.7 1.0 10.0 0
209256 tracker6 20:55 23/04/2021 35.2974815369 139.4880523682 625112342021.0 0.5 282.7 1.0 10.0 0
209255 tracker6 20:55 23/04/2021 35.2975120544 139.4880523682 625112342021.0 0.8 306.7 1.0 10.0 0
209254 tracker6 20:55 23/04/2021 35.2975234985 139.4880523682 625112342021.0 0.8 306.7 1.0 10.0 0
209253 tracker6 20:55 23/04/2021 35.2975463867 139.488067627 625112342021.0 0.3 290.8 1.0 10.0 0
209252 tracker6 20:55 23/04/2021 35.2975387573 139.4880828857 625112342021.0 0.3 290.8 1.0 10.0 0
209251 tracker6 20:55 23/04/2021 35.2975692749 139.4880828857 625112342021.0 0.3 290.8 1.0 10.0 0
209250 tracker6 20:55 23/04/2021 35.2975730896 139.4880828857 625112342021.0 0.7 340.6 1.0 10.0 0
209249 tracker6 20:55 23/04/2021 35.2975883484 139.4880981445 625112342021.0 0.0 254.4 1.0 10.0 0
209248 tracker6 20:55 23/04/2021 35.2975616455 139.4881134033 625112342021.0 0.4 231.4 1.0 10.0 0
209247 tracker6 20:55 23/04/2021 35.2975730896 139.4881439209 625112342021.0 0.3 260.8 1.0 10.0 0
209246 tracker6 20:54 23/04/2021 35.2975921631 139.4881439209 625112342021.0 0.4 260.8 1.0 10.0 0
209245 tracker6 20:54 23/04/2021 35.2975997925 139.4881439209 625112342021.0 0.9 278.4 1.0 10.0 0
209244 tracker6 20:54 23/04/2021 35.2976036072 139.4881591797 625112342021.0 0.4 318.7 1.0 10.0 0
209243 tracker6 20:54 23/04/2021 35.2976074219 139.4881591797 625112342021.0 0.6 318.7 1.0 10.0 0
209242 tracker6 20:54 23/04/2021 35.2976112366 139.4881591797 625112342021.0 0.8 293.6 1.0 10.0 0
209241 tracker6 20:54 23/04/2021 35.2976036072 139.4882202148 625112342021.0 0.8 293.6 1.0 10.0 0
209240 tracker6 20:54 23/04/2021 35.2975921631 139.4882507324 625112342021.0 0.8 44.0 1.0 10.0 0
209239 tracker6 20:54 23/04/2021 35.297580719 139.4882965088 625112342021.0 0.8 44.0 1.0 10.0 0
209238 tracker6 20:54 23/04/2021 35.2975921631 139.4882507324 625112342021.0 1.4 333.7 1.0 10.0 0
209237 tracker6 20:54 23/04/2021 35.2975883484 139.4882507324 625112342021.0 1.4 333.7 1.0 10.0 0
209236 tracker6 20:54 23/04/2021 35.2975616455 139.4882507324 625112342021.0 0.7 306.1 1.0 10.0 0
209235 tracker6 20:53 23/04/2021 35.2975234985 139.4882659912 625112342021.0 0.7 306.1 1.0 10.0 0
209234 tracker6 20:53 23/04/2021 35.297542572 139.4882507324 625112342021.0 0.5 234.5 1.0 10.0 0
209233 tracker6 20:53 23/04/2021 35.2975349426 139.4882659912 625112342021.0 0.5 234.5 1.0 10.0 0
209232 tracker6 20:53 23/04/2021 35.2975311279 139.48828125 625112342021.0 0.2 265.9 1.0 10.0 0
209231 tracker6 20:53 23/04/2021 35.2975349426 139.4882965088 625112342021.0 0.2 265.9 1.0 10.0 0
209230 tracker6 20:53 23/04/2021 35.297542572 139.4882965088 625112342021.0 0.4 245.4 1.0 10.0 0
209229 tracker6 20:53 23/04/2021 35.2975502014 139.4882965088 625112342021.0 0.4 245.4 1.0 10.0 0
209228 tracker6 20:53 23/04/2021 35.2975616455 139.4883270264 625112342021.0 0.4 245.4 1.0 10.0 0
209227 tracker6 20:53 23/04/2021 35.2975845337 139.4883575439 625112342021.0 1.0 307.3 1.0 10.0 0
209226 tracker6 20:53 23/04/2021 35.2975883484 139.4883728027 625112342021.0 0.1 234.5 1.0 10.0 0
209225 tracker6 20:53 23/04/2021 35.2975883484 139.4883880615 625112342021.0 0.6 234.5 1.0 10.0 0
209224 tracker6 20:52 23/04/2021 35.2975959778 139.4884033203 625112342021.0 0.1 325.2 1.0 10.0 0
209223 tracker6 20:52 23/04/2021 35.2976036072 139.4884033203 625112342021.0 0.3 325.2 1.0 10.0 0
209222 tracker6 20:52 23/04/2021 35.2975997925 139.4884033203 625112342021.0 1.0 344.1 1.0 10.0 0
209221 tracker6 20:52 23/04/2021 35.2975959778 139.4884033203 625112342021.0 1.3 285.3 1.0 10.0 0
209220 tracker6 20:52 23/04/2021 35.2975730896 139.4883880615 625112342021.0 1.3 285.3 1.0 10.0 0
209219 tracker6 20:52 23/04/2021 35.2975921631 139.4884033203 625112342021.0 1.5 296.1 1.0 10.0 0
209218 tracker6 20:52 23/04/2021 35.2975959778 139.4884033203 625112342021.0 0.4 177.8 1.0 10.0 0
209217 tracker6 20:52 23/04/2021 35.2975921631 139.4884338379 625112342021.0 0.5 161.5 1.0 10.0 0
209216 tracker6 20:52 23/04/2021 35.2975959778 139.4884490967 625112342021.0 0.4 200.0 1.0 10.0 0
209215 tracker6 20:52 23/04/2021 35.2975997925 139.4884490967 625112342021.0 0.4 200.0 1.0 10.0 0
209214 tracker6 20:52 23/04/2021 35.2976264954 139.4884643555 625112342021.0 0.7 199.6 1.0 10.0 0
209213 tracker6 20:52 23/04/2021 35.2976112366 139.4884490967 625112342021.0 0.7 199.6 1.0 10.0 0
209212 tracker6 20:51 23/04/2021 35.2976226807 139.4884490967 625112342021.0 0.6 250.1 1.0 10.0 0
209211 tracker6 20:51 23/04/2021 35.2976264954 139.4884338379 625112342021.0 0.6 250.1 1.0 10.0 0
209210 tracker6 20:51 23/04/2021 35.2976036072 139.4884490967 625112342021.0 0.5 265.2 1.0 10.0 0
209209 tracker6 20:51 23/04/2021 35.2976074219 139.4884338379 625112342021.0 0.3 154.3 1.0 10.0 0
209208 tracker6 20:51 23/04/2021 35.2976112366 139.4884643555 625112342021.0 0.1 201.2 1.0 10.0 0
209207 tracker6 20:51 23/04/2021 35.2976226807 139.488494873 625112342021.0 0.1 201.2 1.0 9.0 0
209206 tracker6 20:51 23/04/2021 35.297618866 139.488494873 625112342021.0 0.1 201.2 1.0 9.0 0
209205 tracker6 20:51 23/04/2021 35.2976226807 139.488494873 625112342021.0 0.6 303.9 1.0 9.0 0
209204 tracker6 20:51 23/04/2021 35.2976150513 139.4885101318 625112342021.0 0.5 176.8 1.0 9.0 0
209203 tracker6 20:51 23/04/2021 35.297618866 139.4885406494 625112342021.0 0.2 176.8 1.0 9.0 0
209202 tracker6 20:51 23/04/2021 35.2976112366 139.4885406494 625112342021.0 0.3 296.0 1.0 9.0 0
209201 tracker6 20:51 23/04/2021 35.2976112366 139.4885253906 625112342021.0 0.5 114.5 1.0 9.0 0
209200 tracker6 20:50 23/04/2021 35.2976112366 139.4885406494 625112342021.0 0.6 114.5 1.0 9.0 0
209199 tracker6 20:50 23/04/2021 35.2975997925 139.4885406494 625112342021.0 0.9 195.9 1.0 9.0 0
209198 tracker6 20:50 23/04/2021 35.2976036072 139.4885253906 625112342021.0 0.2 268.8 1.0 9.0 0
209197 tracker6 20:50 23/04/2021 35.2976264954 139.4885559082 625112342021.0 0.9 180.4 1.0 9.0 0
209196 tracker6 20:50 23/04/2021 35.2976112366 139.4885559082 625112342021.0 0.6 305.9 1.0 9.0 0
209195 tracker6 20:50 23/04/2021 35.2976264954 139.488571167 625112342021.0 0.6 295.0 1.0 9.0 0
209194 tracker6 20:50 23/04/2021 35.2976303101 139.4885864258 625112342021.0 0.4 204.6 1.0 9.0 0
209193 tracker6 20:50 23/04/2021 35.2976379395 139.488571167 625112342021.0 0.7 271.4 1.0 9.0 0
209192 tracker6 20:50 23/04/2021 35.2976646423 139.4885864258 625112342021.0 0.3 200.1 1.0 9.0 0
209191 tracker6 20:50 23/04/2021 35.2976608276 139.4886016846 625112342021.0 0.5 200.1 1.0 10.0 0
209190 tracker6 20:50 23/04/2021 35.2976455688 139.4886169434 625112342021.0 0.5 194.1 1.0 10.0 0
209189 tracker6 20:50 23/04/2021 35.2976493835 139.4886169434 625112342021.0 0.6 158.0 1.0 10.0 0
209188 tracker6 20:49 23/04/2021 35.2976570129 139.4886474609 625112342021.0 0.2 294.1 1.0 10.0 0
209187 tracker6 20:49 23/04/2021 35.2976722717 139.4886322021 625112342021.0 0.4 294.1 1.0 10.0 0
209186 tracker6 20:49 23/04/2021 35.2976760864 139.4886322021 625112342021.0 0.7 230.9 1.0 10.0 0
209185 tracker6 20:49 23/04/2021 35.2976913452 139.4886169434 625112342021.0 0.4 251.8 1.0 10.0 0
209184 tracker6 20:49 23/04/2021 35.2976989746 139.4886322021 625112342021.0 0.2 251.8 1.0 10.0 0
209183 tracker6 20:49 23/04/2021 35.2976913452 139.4886322021 625112342021.0 0.6 251.8 1.0 10.0 0
209182 tracker6 20:49 23/04/2021 35.2976989746 139.4886322021 625112342021.0 0.6 251.8 1.0 10.0 0